createdAt,value
2023-10-10T00:02:19.450Z,9.43
2023-10-10T00:04:50.701Z,9.48
2023-10-10T00:07:18.871Z,7.90
2023-10-10T00:09:46.651Z,9.88
2023-10-10T00:12:40.253Z,9.20
2023-10-10T00:15:12.437Z,9.80
2023-10-10T00:17:39.299Z,9.10
2023-10-10T00:20:25.811Z,9.85
2023-10-10T00:22:59.782Z,10.18
2023-10-10T00:25:32.146Z,9.02
2023-10-10T00:28:10.779Z,9.85
2023-10-10T00:30:44.391Z,10.13
2023-10-10T00:33:12.173Z,10.30
2023-10-10T00:35:39.660Z,8.65
2023-10-10T00:38:06.850Z,8.88
2023-10-10T00:40:39.594Z,11.98
2023-10-10T00:43:17.592Z,9.77
2023-10-10T00:45:52.998Z,9.32
2023-10-10T00:48:23.778Z,9.55
2023-10-10T00:51:06.725Z,9.23
2023-10-10T00:53:37.720Z,9.52
2023-10-10T00:56:07.419Z,8.52
2023-10-10T00:58:38.287Z,7.20
2023-10-10T01:01:11.093Z,9.00
2023-10-10T01:03:41.520Z,7.75
2023-10-10T01:06:25.646Z,9.48
2023-10-10T01:08:56.638Z,7.78
2023-10-10T01:11:24.097Z,9.07
2023-10-10T01:13:53.553Z,7.93
2023-10-10T01:16:26.667Z,9.40
2023-10-10T01:18:58.234Z,9.73
2023-10-10T01:21:49.552Z,10.90
2023-10-10T01:24:18.881Z,9.23
2023-10-10T01:26:46.111Z,9.95
2023-10-10T01:29:25.369Z,9.38
2023-10-10T01:31:56.049Z,10.70
2023-10-10T01:34:32.390Z,10.73
2023-10-10T01:37:15.005Z,8.93
2023-10-10T01:39:55.836Z,9.90
2023-10-10T01:42:32.814Z,13.07
2023-10-10T01:45:08.973Z,7.13
2023-10-10T01:47:36.403Z,8.32
2023-10-10T01:50:12.084Z,9.77
2023-10-10T01:52:39.286Z,8.80
2023-10-10T01:55:07.047Z,8.10
2023-10-10T01:57:33.439Z,10.13
2023-10-10T02:00:07.057Z,8.95
2023-10-10T02:02:36.118Z,7.80
2023-10-10T02:05:05.076Z,9.23
2023-10-10T02:07:34.600Z,8.57
2023-10-10T02:10:13.153Z,8.90
2023-10-10T02:12:46.216Z,11.60
2023-10-10T02:15:15.620Z,10.45
2023-10-10T02:17:52.107Z,9.93
2023-10-10T02:20:28.331Z,10.32
2023-10-10T02:22:55.450Z,8.70
2023-10-10T02:25:27.511Z,9.38
2023-10-10T02:28:11.499Z,9.50
2023-10-10T02:30:39.011Z,6.70
2023-10-10T02:33:26.076Z,8.93
2023-10-10T02:35:57.265Z,10.93
2023-10-10T02:38:35.334Z,8.07
2023-10-10T02:41:21.596Z,8.80
2023-10-10T02:44:01.908Z,10.73
2023-10-10T02:46:37.421Z,8.98
2023-10-10T02:49:13.700Z,6.78
2023-10-10T02:54:33.220Z,9.25
2023-10-10T02:57:20.707Z,10.23
2023-10-10T02:59:51.794Z,7.00
2023-10-10T03:02:20.551Z,10.68
2023-10-10T03:05:07.571Z,8.95
2023-10-10T03:07:36.139Z,8.98
2023-10-10T03:10:23.636Z,6.93
2023-10-10T03:12:52.886Z,8.80
2023-10-10T03:15:21.076Z,8.95
2023-10-10T03:17:51.576Z,8.70
2023-10-10T03:20:27.136Z,6.72
2023-10-10T03:23:25.115Z,8.35
2023-10-10T03:25:51.554Z,10.18
2023-10-10T03:28:30.230Z,8.98
2023-10-10T03:31:16.307Z,6.25
2023-10-10T03:33:44.019Z,9.05
2023-10-10T03:36:18.702Z,10.82
2023-10-10T03:38:50.928Z,7.30
2023-10-10T03:41:23.849Z,9.93
2023-10-10T03:44:13.143Z,8.80
2023-10-10T03:46:48.827Z,8.38
2023-10-10T03:49:34.087Z,9.02
2023-10-10T03:52:19.431Z,11.02
2023-10-10T03:55:04.835Z,8.10
2023-10-10T03:57:49.588Z,8.25
2023-10-10T04:00:35.032Z,10.38
2023-10-10T04:03:19.901Z,7.78
2023-10-10T04:06:04.992Z,9.80
2023-10-10T04:08:49.951Z,8.32
2023-10-10T04:11:34.851Z,8.85
2023-10-10T04:14:20.408Z,7.30
2023-10-10T04:17:05.219Z,12.63
2023-10-10T04:19:50.724Z,9.57
2023-10-10T04:22:35.386Z,7.25
2023-10-10T04:25:20.757Z,6.10
2023-10-10T04:28:05.507Z,8.30
2023-10-10T04:30:50.264Z,7.15
2023-10-10T04:33:35.649Z,10.35
2023-10-10T04:36:20.371Z,10.10
2023-10-10T04:39:05.135Z,13.35
2023-10-10T04:41:49.906Z,9.48
2023-10-10T04:44:34.944Z,10.68
2023-10-10T04:47:19.829Z,10.20
2023-10-10T04:50:04.794Z,10.25
2023-10-10T04:52:53.097Z,11.02
2023-10-10T04:55:38.330Z,9.25
2023-10-10T04:58:23.652Z,9.43
2023-10-10T05:01:08.667Z,12.30
2023-10-10T05:03:53.831Z,7.50
2023-10-10T05:06:38.634Z,8.38
2023-10-10T05:09:23.436Z,7.38
2023-10-10T05:12:08.221Z,9.43
2023-10-10T05:14:52.987Z,10.25
2023-10-10T05:17:37.851Z,11.20
2023-10-10T05:23:10.648Z,9.90
2023-10-10T05:25:38.544Z,10.35
2023-10-10T05:28:05.381Z,8.55
2023-10-10T05:30:40.878Z,12.23
2023-10-10T05:33:07.964Z,7.40
2023-10-10T05:35:39.221Z,9.68
2023-10-10T05:38:08.510Z,9.05
2023-10-10T05:40:35.479Z,7.90
2023-10-10T05:43:04.070Z,6.57
2023-10-10T05:45:31.049Z,9.93
2023-10-10T05:47:57.534Z,9.13
2023-10-10T05:50:24.027Z,10.77
2023-10-10T05:52:50.466Z,10.63
2023-10-10T05:55:17.031Z,9.23
2023-10-10T05:57:43.479Z,10.05
2023-10-10T06:00:12.142Z,8.80
2023-10-10T06:02:39.154Z,9.55
2023-10-10T06:05:06.716Z,10.05
2023-10-10T06:07:34.300Z,8.98
2023-10-10T06:10:00.729Z,10.13
2023-10-10T06:12:27.085Z,8.68
2023-10-10T06:14:55.663Z,7.68
2023-10-10T06:17:25.278Z,10.90
2023-10-10T06:19:51.764Z,10.48
2023-10-10T06:22:18.176Z,9.25
2023-10-10T06:24:45.017Z,8.98
2023-10-10T06:27:14.318Z,8.18
2023-10-10T06:29:41.992Z,10.27
2023-10-10T06:32:16.806Z,10.48
2023-10-10T06:34:50.718Z,9.07
2023-10-10T06:37:17.330Z,9.02
2023-10-10T06:39:55.803Z,10.98
2023-10-10T06:42:28.465Z,9.85
2023-10-10T06:44:55.474Z,9.10
2023-10-10T06:47:22.571Z,10.05
2023-10-10T06:50:01.036Z,9.98
2023-10-10T06:52:29.556Z,9.98
2023-10-10T06:54:56.602Z,11.82
2023-10-10T06:57:46.283Z,9.73
2023-10-10T07:00:20.871Z,9.13
2023-10-10T07:02:54.391Z,7.85
2023-10-10T07:05:21.475Z,6.82
2023-10-10T07:07:59.267Z,9.00
2023-10-10T07:10:36.202Z,10.50
2023-10-10T07:13:04.440Z,8.98
2023-10-10T07:15:35.905Z,8.55
2023-10-10T07:18:23.460Z,8.25
2023-10-10T07:21:07.788Z,8.80
2023-10-10T07:23:39.615Z,8.13
2023-10-10T07:26:21.654Z,9.95
2023-10-10T07:28:49.564Z,7.88
2023-10-10T07:31:20.061Z,7.85
2023-10-10T07:33:57.253Z,7.95
2023-10-10T07:36:26.050Z,8.68
2023-10-10T07:39:16.467Z,8.93
2023-10-10T07:41:47.830Z,9.25
2023-10-10T07:44:23.620Z,9.45
2023-10-10T07:49:37.961Z,9.15
2023-10-10T07:52:04.448Z,7.07
2023-10-10T07:54:40.367Z,9.82
2023-10-10T07:57:18.658Z,9.48
2023-10-10T07:59:45.971Z,9.18
2023-10-10T08:02:25.870Z,6.13
2023-10-10T08:04:54.496Z,8.73
2023-10-10T08:07:21.482Z,6.85
2023-10-10T08:09:49.403Z,6.43
2023-10-10T08:12:16.938Z,7.18
2023-10-10T08:14:44.099Z,8.43
2023-10-10T08:17:19.754Z,6.45
2023-10-10T08:19:52.687Z,6.68
2023-10-10T08:22:20.927Z,8.52
2023-10-10T08:24:47.309Z,7.93
2023-10-10T08:27:13.780Z,8.05
2023-10-10T08:29:41.464Z,6.47
2023-10-10T08:32:09.866Z,8.25
2023-10-10T08:34:40.052Z,8.60
2023-10-10T08:37:06.506Z,9.57
2023-10-10T08:39:40.280Z,6.78
2023-10-10T08:42:11.824Z,9.05
2023-10-10T08:44:40.226Z,9.75
2023-10-10T08:47:33.177Z,8.43
2023-10-10T08:50:02.013Z,7.05
2023-10-10T08:52:31.226Z,6.75
2023-10-10T08:54:59.499Z,6.22
2023-10-10T08:57:28.417Z,7.25
2023-10-10T08:59:55.455Z,9.38
2023-10-10T09:02:21.877Z,6.75
2023-10-10T09:04:51.614Z,6.75
2023-10-10T09:07:22.115Z,7.45
2023-10-10T09:10:05.472Z,7.53
2023-10-10T09:12:54.019Z,7.00
2023-10-10T09:15:20.972Z,8.32
2023-10-10T09:17:48.266Z,6.13
2023-10-10T09:20:31.295Z,7.13
2023-10-10T09:23:05.659Z,5.75
2023-10-10T09:25:58.734Z,7.10
2023-10-10T09:28:31.975Z,8.75
2023-10-10T09:31:04.270Z,7.70
2023-10-10T09:33:34.879Z,8.00
2023-10-10T09:36:09.620Z,7.60
2023-10-10T09:38:49.715Z,7.18
2023-10-10T09:41:37.415Z,8.00
2023-10-10T09:44:22.375Z,8.07
2023-10-10T09:47:06.908Z,7.63
2023-10-10T09:49:58.915Z,7.60
2023-10-10T09:52:44.383Z,7.10
2023-10-10T09:55:13.407Z,9.60
2023-10-10T09:58:01.896Z,7.03
2023-10-10T10:00:46.191Z,6.75
2023-10-10T10:03:33.274Z,14.27
2023-10-10T10:06:22.624Z,9.27
2023-10-10T10:09:32.477Z,6.93
2023-10-10T10:12:32.642Z,7.97
2023-10-10T10:15:16.620Z,9.73
2023-10-10T10:17:55.823Z,6.20
2023-10-10T10:20:46.232Z,7.50
2023-10-10T10:23:28.633Z,6.03
2023-10-10T10:26:05.478Z,6.88
2023-10-10T10:28:38.499Z,5.57
2023-10-10T10:31:17.524Z,7.03
2023-10-10T10:34:07.595Z,6.88
2023-10-10T10:36:44.876Z,8.20
2023-10-10T10:39:21.976Z,6.38
2023-10-10T10:41:57.307Z,5.53
2023-10-10T10:44:57.757Z,5.97
2023-10-10T10:47:36.658Z,6.30
2023-10-10T10:50:18.550Z,6.63
2023-10-10T10:52:58.404Z,5.25
2023-10-10T10:55:29.292Z,6.38
2023-10-10T10:58:21.917Z,7.57
2023-10-10T11:00:57.613Z,11.43
2023-10-10T11:03:37.745Z,6.72
2023-10-10T11:06:09.202Z,7.88
2023-10-10T11:08:57.566Z,6.28
2023-10-10T11:14:00.636Z,6.38
2023-10-10T11:16:40.525Z,5.43
2023-10-10T11:19:23.287Z,5.57
2023-10-10T11:22:21.198Z,5.78
2023-10-10T11:24:49.671Z,6.30
2023-10-10T11:27:16.246Z,5.93
2023-10-10T11:29:49.117Z,6.53
2023-10-10T11:32:24.909Z,5.70
2023-10-10T11:34:57.932Z,6.30
2023-10-10T11:37:32.321Z,6.72
2023-10-10T11:40:20.879Z,4.80
2023-10-10T11:42:49.912Z,7.70
2023-10-10T11:45:20.841Z,7.30
2023-10-10T11:47:48.661Z,6.03
2023-10-10T11:50:18.944Z,5.40
2023-10-10T11:52:57.175Z,5.05
2023-10-10T11:55:24.984Z,6.25
2023-10-10T11:57:52.825Z,6.60
2023-10-10T12:02:51.375Z,5.78
2023-10-10T12:05:38.097Z,6.28
2023-10-10T12:08:08.754Z,4.68
2023-10-10T12:10:48.475Z,5.07
2023-10-10T12:13:30.922Z,5.07
2023-10-10T12:16:13.552Z,5.75
2023-10-10T12:18:46.337Z,6.03
2023-10-10T12:21:16.090Z,4.03
2023-10-10T12:23:42.817Z,5.25
2023-10-10T12:26:11.928Z,5.43
2023-10-10T12:28:38.364Z,7.80
2023-10-10T12:31:05.618Z,4.35
2023-10-10T12:33:32.995Z,5.60
2023-10-10T12:35:59.735Z,5.07
2023-10-10T12:38:26.225Z,5.53
2023-10-10T12:40:53.881Z,5.63
2023-10-10T12:43:21.801Z,5.32
2023-10-10T12:45:48.629Z,5.07
2023-10-10T12:48:15.894Z,5.05
2023-10-10T12:50:42.894Z,4.68
2023-10-10T12:53:09.994Z,4.40
2023-10-10T12:55:38.181Z,5.50
2023-10-10T12:58:16.164Z,5.80
2023-10-10T13:00:51.343Z,4.70
2023-10-10T13:03:24.461Z,4.47
2023-10-10T13:05:59.613Z,4.75
2023-10-10T13:08:50.238Z,4.30
2023-10-10T13:11:20.266Z,7.47
2023-10-10T13:13:52.818Z,5.75
2023-10-10T13:16:23.797Z,5.22
2023-10-10T13:18:54.910Z,5.70
2023-10-10T13:21:21.555Z,6.10
2023-10-10T13:23:52.750Z,6.72
2023-10-10T13:26:23.359Z,5.25
2023-10-10T13:28:50.381Z,5.95
2023-10-10T13:31:18.526Z,5.10
2023-10-10T13:33:45.725Z,6.07
2023-10-10T13:36:16.332Z,5.15
2023-10-10T13:38:51.136Z,5.05
2023-10-10T13:41:23.439Z,5.00
2023-10-10T13:43:52.090Z,5.35
2023-10-10T13:46:20.868Z,5.35
2023-10-10T13:48:48.478Z,5.57
2023-10-10T13:51:16.426Z,4.90
2023-10-10T13:53:45.903Z,5.03
2023-10-10T13:56:14.669Z,5.53
2023-10-10T13:58:48.278Z,4.63
2023-10-10T14:01:17.684Z,5.88
2023-10-10T14:03:50.322Z,5.03
2023-10-10T14:06:18.068Z,6.25
2023-10-10T14:08:50.843Z,5.70
2023-10-10T14:11:24.180Z,5.68
2023-10-10T14:13:55.242Z,6.35
2023-10-10T14:16:23.516Z,5.43
2023-10-10T14:18:53.420Z,5.57
2023-10-10T14:21:28.160Z,5.93
2023-10-10T14:24:14.344Z,5.45
2023-10-10T14:26:44.572Z,4.93
2023-10-10T14:29:15.655Z,4.97
2023-10-10T14:31:46.737Z,4.97
2023-10-10T14:34:21.474Z,5.40
2023-10-10T14:36:52.375Z,4.45
2023-10-10T14:39:37.693Z,5.32
2023-10-10T14:42:04.530Z,4.88
2023-10-10T14:44:32.553Z,4.50
2023-10-10T14:46:59.244Z,5.32
2023-10-10T14:49:31.992Z,4.88
2023-10-10T14:52:04.652Z,4.88
2023-10-10T14:54:32.327Z,5.50
2023-10-10T14:56:58.879Z,5.57
2023-10-10T14:59:26.812Z,5.88
2023-10-10T15:01:53.693Z,6.07
2023-10-10T15:04:22.541Z,5.28
2023-10-10T15:06:55.245Z,6.68
2023-10-10T15:09:24.994Z,6.88
2023-10-10T15:11:53.463Z,5.32
2023-10-10T15:14:20.677Z,5.85
2023-10-10T15:16:50.713Z,4.90
2023-10-10T15:19:17.527Z,6.30
2023-10-10T15:21:49.357Z,4.30
2023-10-10T15:24:16.232Z,5.90
2023-10-10T15:26:52.417Z,5.90
2023-10-10T15:29:22.103Z,5.95
2023-10-10T15:34:17.398Z,4.90
2023-10-10T15:36:45.397Z,6.05
2023-10-10T15:39:12.614Z,5.45
2023-10-10T15:41:41.828Z,8.60
2023-10-10T15:44:09.273Z,6.38
2023-10-10T15:46:38.420Z,6.43
2023-10-10T15:49:25.309Z,6.38
2023-10-10T15:52:04.528Z,6.70
2023-10-10T15:54:34.626Z,4.88
2023-10-10T15:57:05.029Z,5.63
2023-10-10T15:59:31.496Z,5.72
2023-10-10T16:01:58.007Z,4.40
2023-10-10T16:04:27.287Z,5.30
2023-10-10T16:06:53.762Z,5.75
2023-10-10T16:09:21.581Z,6.55
2023-10-10T16:11:54.617Z,5.40
2023-10-10T16:14:21.657Z,5.72
2023-10-10T16:16:48.870Z,6.65
2023-10-10T16:19:22.393Z,6.43
2023-10-10T16:21:49.761Z,6.00
2023-10-10T16:24:16.198Z,6.03
2023-10-10T16:26:43.435Z,6.50
2023-10-10T16:29:09.992Z,5.60
2023-10-10T16:31:37.361Z,5.85
2023-10-10T16:34:04.531Z,7.00
2023-10-10T16:36:31.718Z,6.55
2023-10-10T16:38:58.387Z,6.28
2023-10-10T16:41:24.914Z,6.53
2023-10-10T16:44:00.755Z,6.65
2023-10-10T16:46:32.695Z,5.25
2023-10-10T16:48:59.499Z,7.53
2023-10-10T16:51:32.760Z,7.05
2023-10-10T16:53:59.535Z,10.65
2023-10-10T16:56:26.244Z,4.95
2023-10-10T16:58:52.935Z,6.57
2023-10-10T17:01:23.600Z,6.20
2023-10-10T17:03:55.260Z,6.35
2023-10-10T17:06:23.734Z,7.28
2023-10-10T17:08:54.028Z,6.85
2023-10-10T17:11:21.928Z,6.57
2023-10-10T17:13:48.550Z,6.60
2023-10-10T17:16:21.835Z,5.97
2023-10-10T17:18:50.700Z,7.28
2023-10-10T17:21:21.350Z,7.13
2023-10-10T17:23:49.644Z,6.80
2023-10-10T17:26:19.729Z,7.10
2023-10-10T17:28:46.406Z,6.43
2023-10-10T17:31:20.947Z,6.53
2023-10-10T17:33:48.238Z,6.85
2023-10-10T17:36:16.514Z,5.88
2023-10-10T17:38:44.837Z,6.55
2023-10-10T17:41:14.375Z,6.30
2023-10-10T17:43:44.217Z,6.15
2023-10-10T17:46:15.105Z,4.85
2023-10-10T17:48:43.229Z,6.35
2023-10-10T17:51:16.366Z,6.28
2023-10-10T17:53:43.572Z,6.57
2023-10-10T17:56:13.840Z,6.15
2023-10-10T17:58:41.397Z,6.70
2023-10-10T18:01:12.017Z,6.35
2023-10-10T18:03:42.801Z,5.35
2023-10-10T18:06:22.428Z,6.50
2023-10-10T18:08:49.430Z,6.38
2023-10-10T18:11:16.439Z,7.95
2023-10-10T18:13:44.444Z,5.72
2023-10-10T18:16:11.049Z,7.10
2023-10-10T18:18:39.006Z,7.70
2023-10-10T18:21:08.436Z,8.35
2023-10-10T18:23:39.077Z,6.30
2023-10-10T18:26:13.019Z,6.55
2023-10-10T18:28:40.658Z,7.47
2023-10-10T18:31:20.282Z,7.22
2023-10-10T18:33:48.036Z,6.78
2023-10-10T18:36:14.550Z,6.10
2023-10-10T18:38:41.227Z,7.50
2023-10-10T18:41:08.808Z,7.35
2023-10-10T18:43:35.368Z,4.70
2023-10-10T18:46:02.217Z,6.35
2023-10-10T18:48:34.117Z,6.72
2023-10-10T18:51:01.923Z,5.47
2023-10-10T18:53:28.577Z,7.25
2023-10-10T18:55:56.369Z,6.72
2023-10-10T18:58:27.291Z,6.53
2023-10-10T19:00:56.152Z,6.28
2023-10-10T19:03:23.528Z,8.93
2023-10-10T19:05:53.002Z,8.73
2023-10-10T19:08:20.422Z,7.25
2023-10-10T19:10:51.772Z,7.70
2023-10-10T19:13:19.652Z,8.02
2023-10-10T19:15:48.889Z,6.80
2023-10-10T19:18:17.028Z,7.38
2023-10-10T19:20:44.372Z,7.63
2023-10-10T19:23:11.048Z,5.07
2023-10-10T19:25:47.406Z,4.95
2023-10-10T19:28:18.502Z,5.15
2023-10-10T19:30:45.915Z,7.03
2023-10-10T19:33:15.514Z,6.82
2023-10-10T19:35:45.485Z,5.45
2023-10-10T19:38:12.872Z,5.97
2023-10-10T19:40:43.950Z,6.65
2023-10-10T19:43:11.300Z,5.95
2023-10-10T19:45:38.777Z,10.57
2023-10-10T19:48:08.648Z,5.32
2023-10-10T19:50:45.800Z,5.82
2023-10-10T19:53:16.612Z,6.25
2023-10-10T19:55:44.494Z,5.53
2023-10-10T19:58:12.787Z,5.60
2023-10-10T20:00:48.731Z,6.07
2023-10-10T20:03:18.974Z,6.15
2023-10-10T20:05:45.620Z,5.22
2023-10-10T20:08:15.210Z,6.07
2023-10-10T20:10:48.108Z,5.57
2023-10-10T20:13:14.783Z,5.78
2023-10-10T20:15:41.267Z,6.32
2023-10-10T20:18:16.060Z,6.15
2023-10-10T20:20:42.830Z,6.90
2023-10-10T20:23:10.648Z,6.45
2023-10-10T20:25:40.746Z,5.55
2023-10-10T20:28:08.752Z,6.47
2023-10-10T20:30:38.287Z,5.10
2023-10-10T20:33:06.230Z,6.78
2023-10-10T20:35:33.144Z,6.65
2023-10-10T20:38:07.173Z,5.07
2023-10-10T20:40:36.088Z,6.15
2023-10-10T20:43:10.086Z,5.72
2023-10-10T20:45:37.849Z,7.13
2023-10-10T20:48:10.265Z,5.78
2023-10-10T20:50:45.111Z,5.55
2023-10-10T20:53:12.902Z,5.40
2023-10-10T20:55:39.751Z,5.82
2023-10-10T20:58:06.234Z,5.53
2023-10-10T21:00:35.566Z,5.88
2023-10-10T21:03:07.227Z,5.25
2023-10-10T21:05:35.384Z,5.05
2023-10-10T21:08:03.338Z,5.25
2023-10-10T21:10:30.852Z,6.32
2023-10-10T21:12:57.547Z,3.80
2023-10-10T21:15:24.355Z,5.35
2023-10-10T21:17:55.380Z,4.22
2023-10-10T21:20:28.984Z,5.15
2023-10-10T21:22:59.983Z,3.83
2023-10-10T21:25:27.543Z,5.53
2023-10-10T21:27:57.936Z,5.50
2023-10-10T21:30:29.227Z,6.95
2023-10-10T21:32:57.058Z,4.63
2023-10-10T21:35:33.939Z,6.10
2023-10-10T21:38:00.419Z,4.78
2023-10-10T21:40:28.212Z,6.03
2023-10-10T21:42:56.835Z,5.72
2023-10-10T21:45:25.252Z,5.78
2023-10-10T21:47:58.441Z,5.82
2023-10-10T21:50:25.183Z,6.20
2023-10-10T21:52:51.920Z,4.72
2023-10-10T21:55:20.225Z,5.82
2023-10-10T21:57:56.248Z,6.38
2023-10-10T22:00:32.797Z,5.30
2023-10-10T22:03:05.370Z,5.82
2023-10-10T22:05:33.154Z,5.00
2023-10-10T22:07:59.894Z,5.68
2023-10-10T22:10:26.249Z,5.25
2023-10-10T22:12:56.893Z,6.10
2023-10-10T22:15:26.326Z,5.82
2023-10-10T22:17:56.002Z,5.18
2023-10-10T22:20:24.131Z,5.25
2023-10-10T22:22:51.341Z,6.13
2023-10-10T22:25:22.064Z,6.35
2023-10-10T22:27:49.677Z,6.03
2023-10-10T22:30:18.815Z,5.65
2023-10-10T22:32:46.948Z,5.05
2023-10-10T22:35:14.388Z,5.97
2023-10-10T22:37:41.260Z,8.63
2023-10-10T22:40:12.850Z,6.70
2023-10-10T22:42:39.486Z,5.85
2023-10-10T22:45:11.662Z,4.57
2023-10-10T22:47:39.173Z,5.28
2023-10-10T22:50:08.888Z,5.25
2023-10-10T22:52:38.738Z,6.60
2023-10-10T22:55:07.960Z,5.88
2023-10-10T22:57:35.297Z,5.68
2023-10-10T23:00:06.993Z,5.85
2023-10-10T23:02:33.675Z,4.20
2023-10-10T23:05:00.254Z,5.35
2023-10-10T23:07:27.500Z,5.63
2023-10-10T23:09:54.338Z,6.13
2023-10-10T23:12:23.713Z,6.45
2023-10-10T23:14:50.272Z,4.95
2023-10-10T23:17:17.025Z,6.13
2023-10-10T23:19:43.388Z,5.82
2023-10-10T23:22:09.825Z,6.63
2023-10-10T23:24:36.190Z,5.70
2023-10-10T23:27:02.627Z,5.40
2023-10-10T23:29:29.023Z,6.68
2023-10-10T23:31:55.400Z,5.68
2023-10-10T23:34:21.769Z,6.82
2023-10-10T23:36:48.127Z,5.35
2023-10-10T23:39:17.780Z,6.07
2023-10-10T23:44:14.865Z,6.38
2023-10-10T23:46:47.101Z,5.72
2023-10-10T23:49:14.523Z,5.28
2023-10-10T23:51:41.041Z,5.07
2023-10-10T23:54:07.498Z,4.85
2023-10-10T23:56:36.863Z,6.43
2023-10-10T23:59:03.750Z,6.65
